4XCWC LLHZ-LLHZ

Flight info

Callsign 4XCWC
Flight time 0h 9m
Altitude 800
Route CVFR
Aircraft C172/L-VD/A

Departure

Time 2026-04-15 17:06
Airport Herzliya Airport (LLHZ)

Arrival

Time 2026-04-15 17:15
Airport Herzliya Airport (LLHZ)
Time Latitude Longitude Altitude Speed Heading
2026-04-15 17:00 32.17881 34.83779 116 ft 0 kts 110°
2026-04-15 17:03 32.17889 34.83796 118 ft 4 kts 39°
2026-04-15 17:03 32.17898 34.83828 119 ft 2 kts 14°
2026-04-15 17:03 32.17927 34.83806 122 ft 8 kts 288°
2026-04-15 17:04 32.17958 34.83707 116 ft 30 kts 288°
2026-04-15 17:04 32.18090 34.83274 98 ft 78 kts 290°
2026-04-15 17:04 32.18293 34.82661 265 ft 77 kts 319°
2026-04-15 17:04 32.18732 34.82757 437 ft 82 kts 41°
2026-04-15 17:05 32.19251 34.83037 614 ft 81 kts 31°
2026-04-15 17:05 32.19359 34.83642 693 ft 99 kts 109°
2026-04-15 17:05 32.19023 34.84434 694 ft 108 kts 112°
2026-04-15 17:05 32.18664 34.85185 696 ft 102 kts 124°
2026-04-15 17:06 32.18076 34.85350 736 ft 100 kts 201°
2026-04-15 17:06 32.17641 34.84787 523 ft 99 kts 278°
2026-04-15 17:06 32.17830 34.84088 238 ft 84 kts 295°
2026-04-15 17:06 32.18019 34.83512 116 ft 68 kts 285°
2026-04-15 17:07 32.18201 34.82923 226 ft 78 kts 300°
2026-04-15 17:07 32.18613 34.82662 459 ft 70 kts 17°
2026-04-15 17:07 32.19106 34.82845 589 ft 82 kts 26°
2026-04-15 17:07 32.19421 34.83185 711 ft 87 kts 74°
2026-04-15 17:08 32.19411 34.83455 646 ft 103 kts 103°
2026-04-15 17:08 32.19092 34.84283 624 ft 111 kts 111°
2026-04-15 17:08 32.18750 34.85033 557 ft 95 kts 119°
2026-04-15 17:08 32.18187 34.85289 540 ft 98 kts 191°
2026-04-15 17:09 32.17676 34.84898 550 ft 89 kts 255°
2026-04-15 17:09 32.17830 34.84110 276 ft 108 kts 292°
2026-04-15 17:09 32.18062 34.83348 102 ft 84 kts 296°
2026-04-15 17:09 32.18256 34.82780 261 ft 75 kts 319°
2026-04-15 17:10 32.18698 34.82753 452 ft 74 kts 25°
2026-04-15 17:10 32.19196 34.83035 579 ft 80 kts 27°
2026-04-15 17:10 32.19314 34.83609 670 ft 94 kts 105°
2026-04-15 17:10 32.19019 34.84380 699 ft 112 kts 111°
2026-04-15 17:11 32.18731 34.85223 837 ft 109 kts 110°
2026-04-15 17:11 32.18139 34.85396 879 ft 93 kts 199°
2026-04-15 17:11 32.17606 34.84966 748 ft 88 kts 258°
2026-04-15 17:12 32.17987 34.83605 110 ft 71 kts 295°
2026-04-15 17:12 32.18149 34.83048 117 ft 80 kts 296°
2026-04-15 17:12 32.18453 34.82599 327 ft 69 kts
2026-04-15 17:12 32.18917 34.82814 467 ft 76 kts 30°
2026-04-15 17:13 32.19363 34.83134 695 ft 71 kts 34°
2026-04-15 17:13 32.19775 34.83403 849 ft 65 kts 27°
2026-04-15 17:13 32.19824 34.83932 912 ft 88 kts 124°
2026-04-15 17:13 32.19308 34.84567 740 ft 115 kts 132°
2026-04-15 17:14 32.18926 34.84963 641 ft 107 kts 139°
2026-04-15 17:14 32.18263 34.85240 518 ft 99 kts 176°
2026-04-15 17:14 32.17629 34.85079 458 ft 83 kts 225°
2026-04-15 17:14 32.17661 34.84481 346 ft 77 kts 304°
2026-04-15 17:15 32.17881 34.83930 152 ft 74 kts 294°
2026-04-15 17:15 32.18027 34.83473 103 ft 33 kts 287°
2026-04-15 17:15 32.18029 34.83285 101 ft 3 kts 141°
2026-04-15 17:15 32.18083 34.83277 98 ft 0 kts 142°
2026-04-15 17:16 32.17906 34.83718 115 ft 0 kts 142°
2026-04-15 17:16 32.17905 34.83756 116 ft 3 kts 143°
2026-04-15 17:16 32.17885 34.83765 118 ft 3 kts 103°
2026-04-15 17:16 32.17879 34.83785 118 ft 0 kts 109°